createdAt,value
2023-04-14T00:00:48.986Z,80.36
2023-04-14T00:02:54.168Z,81.30
2023-04-14T00:04:59.559Z,81.90
2023-04-14T00:07:04.837Z,82.02
2023-04-14T00:09:12.553Z,82.17
2023-04-14T00:11:20.529Z,81.50
2023-04-14T00:13:26.115Z,81.56
2023-04-14T00:15:31.037Z,82.15
2023-04-14T00:17:37.141Z,82.49
2023-04-14T00:19:42.220Z,82.29
2023-04-14T00:21:47.253Z,82.67
2023-04-14T00:23:52.508Z,82.40
2023-04-14T00:26:00.146Z,82.57
2023-04-14T00:28:05.909Z,82.93
2023-04-14T00:30:12.220Z,83.64
2023-04-14T00:32:19.404Z,83.78
2023-04-14T00:34:24.557Z,83.32
2023-04-14T00:36:29.546Z,84.40
2023-04-14T00:38:37.770Z,83.95
2023-04-14T00:40:42.660Z,84.05
2023-04-14T00:42:53.586Z,84.37
2023-04-14T00:44:58.881Z,84.82
2023-04-14T00:47:05.454Z,84.59
2023-04-14T00:49:10.768Z,84.08
2023-04-14T00:51:16.335Z,84.48
2023-04-14T00:53:24.610Z,85.45
2023-04-14T00:55:30.016Z,84.69
2023-04-14T00:57:35.844Z,84.75
2023-04-14T00:59:43.979Z,84.10
2023-04-14T01:01:49.101Z,84.78
2023-04-14T01:03:55.519Z,85.29
2023-04-14T01:06:00.758Z,84.89
2023-04-14T01:08:06.813Z,84.98
2023-04-14T01:10:12.863Z,85.22
2023-04-14T01:12:27.923Z,86.39
2023-04-14T01:14:41.909Z,86.57
2023-04-14T01:16:50.667Z,85.79
2023-04-14T01:19:02.166Z,85.67
2023-04-14T01:21:14.294Z,85.39
2023-04-14T01:23:26.662Z,85.69
2023-04-14T01:26:05.956Z,84.98
2023-04-14T01:28:19.785Z,85.61
2023-04-14T01:31:01.709Z,85.37
2023-04-14T01:33:13.891Z,86.10
2023-04-14T01:35:26.222Z,86.15
2023-04-14T01:37:34.464Z,85.81
2023-04-14T01:39:43.808Z,85.47
2023-04-14T01:41:56.188Z,85.99
2023-04-14T01:44:04.660Z,85.61
2023-04-14T01:46:14.882Z,85.67
2023-04-14T01:48:23.015Z,85.75
2023-04-14T01:50:31.682Z,85.87
2023-04-14T01:52:39.044Z,86.09
2023-04-14T01:54:49.384Z,86.10
2023-04-14T01:56:55.851Z,86.14
2023-04-14T01:59:01.788Z,85.76
2023-04-14T02:01:14.641Z,86.36
2023-04-14T02:03:24.654Z,86.31
2023-04-14T02:05:33.898Z,86.27
2023-04-14T02:07:40.020Z,86.31
2023-04-14T02:09:47.342Z,86.20
2023-04-14T02:11:54.825Z,86.45
2023-04-14T02:14:01.186Z,86.63
2023-04-14T02:16:09.326Z,86.84
2023-04-14T02:18:14.744Z,86.65
2023-04-14T02:20:23.039Z,87.37
2023-04-14T02:22:31.022Z,87.18
2023-04-14T02:24:36.567Z,87.28
2023-04-14T02:26:47.515Z,87.25
2023-04-14T02:28:56.978Z,86.99
2023-04-14T02:31:04.397Z,86.97
2023-04-14T02:33:12.821Z,87.42
2023-04-14T02:35:25.569Z,86.92
2023-04-14T02:37:40.263Z,87.26
2023-04-14T02:39:48.392Z,87.07
2023-04-14T02:42:01.552Z,87.46
2023-04-14T02:44:08.726Z,87.36
2023-04-14T02:46:19.635Z,87.04
2023-04-14T02:48:31.505Z,87.02
2023-04-14T02:50:38.915Z,87.49
2023-04-14T02:52:51.902Z,87.00
2023-04-14T02:54:58.171Z,87.62
2023-04-14T02:57:04.206Z,87.53
2023-04-14T02:59:10.349Z,87.58
2023-04-14T03:01:16.318Z,87.68
2023-04-14T03:03:24.668Z,87.41
2023-04-14T03:05:30.955Z,88.39
2023-04-14T03:07:36.672Z,88.19
2023-04-14T03:09:45.911Z,88.13
2023-04-14T03:11:52.583Z,87.83
2023-04-14T03:14:01.100Z,88.14
2023-04-14T03:16:08.623Z,87.95
2023-04-14T03:18:15.131Z,88.28
2023-04-14T03:20:23.795Z,88.46
2023-04-14T03:22:29.806Z,88.06
2023-04-14T03:24:40.360Z,88.03
2023-04-14T03:26:50.412Z,88.51
2023-04-14T03:28:57.892Z,88.46
2023-04-14T03:31:06.828Z,88.54
2023-04-14T03:33:14.914Z,88.55
2023-04-14T03:35:22.747Z,88.37
2023-04-14T03:37:30.782Z,88.56
2023-04-14T03:39:39.020Z,89.10
2023-04-14T03:41:52.191Z,88.95
2023-04-14T03:43:57.678Z,88.74
2023-04-14T03:46:05.561Z,88.50
2023-04-14T03:48:14.837Z,88.68
2023-04-14T03:50:25.083Z,89.02
2023-04-14T03:52:32.700Z,88.35
2023-04-14T03:54:40.872Z,88.36
2023-04-14T03:56:49.340Z,88.48
2023-04-14T03:58:56.716Z,88.25
2023-04-14T04:01:02.804Z,88.30
2023-04-14T04:03:09.093Z,88.40
2023-04-14T04:05:15.288Z,89.25
2023-04-14T04:07:22.644Z,88.72
2023-04-14T04:09:28.581Z,88.65
2023-04-14T04:11:36.892Z,89.36
2023-04-14T04:13:45.864Z,89.48
2023-04-14T04:15:53.945Z,88.84
2023-04-14T04:18:02.964Z,89.61
2023-04-14T04:20:11.803Z,89.45
2023-04-14T04:22:20.668Z,89.38
2023-04-14T04:24:27.829Z,89.69
2023-04-14T04:26:35.138Z,89.65
2023-04-14T04:28:45.740Z,89.68
2023-04-14T04:30:55.823Z,89.44
2023-04-14T04:33:01.206Z,89.56
2023-04-14T04:35:08.020Z,89.62
2023-04-14T04:37:13.719Z,89.41
2023-04-14T04:39:20.745Z,89.68
2023-04-14T04:41:26.558Z,89.60
2023-04-14T04:43:31.690Z,89.44
2023-04-14T04:45:54.966Z,89.67
2023-04-14T04:47:59.827Z,89.23
2023-04-14T04:50:05.009Z,88.93
2023-04-14T04:52:09.956Z,88.88
2023-04-14T04:54:15.886Z,88.95
2023-04-14T04:56:23.990Z,88.95
2023-04-14T04:58:30.969Z,88.96
2023-04-14T05:00:35.910Z,89.37
2023-04-14T05:02:46.913Z,89.34
2023-04-14T05:04:52.103Z,89.55
2023-04-14T05:06:57.722Z,89.49
2023-04-14T05:09:02.762Z,89.29
2023-04-14T05:11:08.801Z,89.20
2023-04-14T05:13:14.344Z,89.14
2023-04-14T05:15:19.586Z,88.79
2023-04-14T05:17:24.698Z,88.92
2023-04-14T05:19:32.164Z,88.42
2023-04-14T05:21:37.035Z,88.58
2023-04-14T05:23:44.268Z,88.73
2023-04-14T05:25:49.190Z,88.63
2023-04-14T05:27:54.151Z,88.44
2023-04-14T05:29:59.018Z,88.52
2023-04-14T05:32:03.932Z,88.17
2023-04-14T05:34:08.782Z,88.18
2023-04-14T05:36:21.077Z,87.89
2023-04-14T05:38:27.455Z,87.68
2023-04-14T05:40:32.459Z,87.46
2023-04-14T05:42:40.474Z,87.15
2023-04-14T05:44:49.194Z,86.55
2023-04-14T05:46:54.288Z,86.42
2023-04-14T05:49:01.011Z,86.05
2023-04-14T05:51:06.553Z,85.48
2023-04-14T05:53:15.776Z,84.89
2023-04-14T05:55:24.121Z,84.56
2023-04-14T05:57:31.359Z,84.13
2023-04-14T05:59:36.593Z,83.61
2023-04-14T06:01:43.920Z,82.78
2023-04-14T06:03:49.279Z,82.84
2023-04-14T06:05:54.482Z,82.09
2023-04-14T06:07:59.396Z,81.40
2023-04-14T06:10:07.540Z,80.55
2023-04-14T06:12:13.065Z,80.56
2023-04-14T06:14:20.220Z,79.52
2023-04-14T06:16:25.330Z,79.80
2023-04-14T06:18:30.358Z,78.95
2023-04-14T06:20:35.330Z,78.44
2023-04-14T06:22:41.425Z,78.42
2023-04-14T06:24:49.364Z,77.68
2023-04-14T06:26:58.724Z,77.04
2023-04-14T06:29:07.793Z,76.61
2023-04-14T06:31:14.697Z,76.11
2023-04-14T06:33:19.849Z,75.93
2023-04-14T06:35:33.012Z,75.46
2023-04-14T06:37:38.711Z,74.45
2023-04-14T06:39:44.564Z,73.67
2023-04-14T06:41:49.492Z,72.96
2023-04-14T06:43:57.145Z,73.03
2023-04-14T06:46:02.199Z,72.81
2023-04-14T06:48:08.220Z,72.83
2023-04-14T06:50:15.069Z,71.83
2023-04-14T06:52:19.852Z,70.71
2023-04-14T06:54:24.870Z,69.62
2023-04-14T06:56:30.129Z,69.51
2023-04-14T06:58:35.310Z,69.65
2023-04-14T07:00:43.052Z,68.52
2023-04-14T07:02:50.415Z,68.71
2023-04-14T07:04:55.597Z,68.09
2023-04-14T07:07:03.154Z,67.83
2023-04-14T07:09:08.328Z,66.95
2023-04-14T07:11:15.198Z,67.43
2023-04-14T07:13:20.251Z,66.45
2023-04-14T07:15:25.341Z,67.44
2023-04-14T07:17:32.825Z,66.51
2023-04-14T07:19:37.965Z,66.01
2023-04-14T07:21:43.349Z,64.04
2023-04-14T07:23:50.106Z,63.29
2023-04-14T07:25:56.315Z,63.52
2023-04-14T07:28:03.545Z,63.79
2023-04-14T07:30:10.346Z,63.23
2023-04-14T07:32:15.571Z,61.88
2023-04-14T07:34:23.205Z,63.39
2023-04-14T07:36:29.064Z,64.30
2023-04-14T07:38:34.924Z,63.59
2023-04-14T07:40:40.260Z,64.06
2023-04-14T07:42:45.646Z,63.37
2023-04-14T07:44:53.975Z,61.69
2023-04-14T07:46:59.135Z,61.59
2023-04-14T07:49:06.253Z,60.71
2023-04-14T07:51:17.857Z,61.23
2023-04-14T07:53:23.028Z,60.93
2023-04-14T07:55:27.931Z,60.16
2023-04-14T07:57:32.949Z,60.65
2023-04-14T07:59:38.568Z,58.86
2023-04-14T08:01:46.210Z,58.35
2023-04-14T08:03:53.424Z,58.90
2023-04-14T08:06:19.655Z,58.21
2023-04-14T08:08:27.710Z,57.20
2023-04-14T08:10:32.591Z,57.06
2023-04-14T08:12:37.969Z,57.34
2023-04-14T08:14:43.058Z,57.36
2023-04-14T08:16:51.593Z,56.92
2023-04-14T08:18:58.046Z,57.34
2023-04-14T08:21:05.794Z,57.40
2023-04-14T08:23:13.540Z,57.75
2023-04-14T08:25:23.103Z,58.40
2023-04-14T08:27:27.963Z,58.48
2023-04-14T08:29:33.023Z,59.66
2023-04-14T08:31:38.099Z,58.25
2023-04-14T08:33:43.180Z,56.85
2023-04-14T08:35:59.484Z,55.39
2023-04-14T08:38:04.940Z,55.53
2023-04-14T08:40:13.501Z,56.09
2023-04-14T08:42:29.177Z,56.13
2023-04-14T08:44:41.682Z,55.68
2023-04-14T08:47:11.823Z,55.26
2023-04-14T08:49:33.600Z,54.42
2023-04-14T08:51:44.301Z,53.71
2023-04-14T08:53:59.955Z,54.50
2023-04-14T08:56:13.225Z,53.07
2023-04-14T08:58:39.069Z,52.45
2023-04-14T09:00:52.280Z,51.52
2023-04-14T09:03:05.256Z,52.96
2023-04-14T09:05:13.376Z,52.79
2023-04-14T09:07:19.559Z,52.58
2023-04-14T09:09:24.727Z,51.21
2023-04-14T09:11:31.429Z,50.30
2023-04-14T09:13:40.979Z,51.67
2023-04-14T09:15:47.459Z,51.17
2023-04-14T09:17:54.602Z,52.08
2023-04-14T09:20:35.590Z,51.73
2023-04-14T09:22:24.790Z,51.80
2023-04-14T09:24:34.337Z,51.54
2023-04-14T09:26:39.446Z,51.81
2023-04-14T09:28:49.581Z,50.46
2023-04-14T09:30:55.237Z,51.29
2023-04-14T09:33:01.259Z,50.26
2023-04-14T09:35:08.054Z,50.02
2023-04-14T09:37:13.128Z,48.95
2023-04-14T09:39:24.546Z,48.40
2023-04-14T09:41:29.635Z,47.42
2023-04-14T09:43:34.723Z,47.78
2023-04-14T09:45:47.663Z,48.57
2023-04-14T09:48:11.047Z,47.72
2023-04-14T09:50:15.630Z,46.90
2023-04-14T09:52:23.275Z,46.87
2023-04-14T09:54:31.136Z,47.58
2023-04-14T09:56:38.709Z,46.77
2023-04-14T09:58:45.853Z,47.24
2023-04-14T10:00:54.422Z,47.89
2023-04-14T10:03:01.663Z,48.42
2023-04-14T10:05:08.264Z,48.39
2023-04-14T10:07:13.204Z,49.10
2023-04-14T10:09:25.301Z,49.31
2023-04-14T10:11:33.069Z,49.92
2023-04-14T10:13:38.024Z,50.17
2023-04-14T10:15:43.458Z,49.55
2023-04-14T10:17:53.682Z,48.80
2023-04-14T10:19:59.360Z,48.70
2023-04-14T10:22:04.981Z,48.34
2023-04-14T10:24:09.836Z,50.63
2023-04-14T10:26:16.073Z,49.40
2023-04-14T10:28:28.307Z,48.41
2023-04-14T10:30:33.767Z,47.86
2023-04-14T10:32:40.701Z,47.15
2023-04-14T10:35:02.587Z,46.84
2023-04-14T10:37:25.768Z,46.75
2023-04-14T10:39:30.746Z,46.80
2023-04-14T10:41:49.908Z,47.47
2023-04-14T10:43:55.321Z,48.06
2023-04-14T10:46:01.057Z,46.77
2023-04-14T10:48:06.198Z,45.90
2023-04-14T10:50:21.485Z,46.73
2023-04-14T10:52:35.417Z,46.88
2023-04-14T10:54:57.438Z,46.88
2023-04-14T10:57:14.908Z,47.75
2023-04-14T10:59:20.034Z,47.40
2023-04-14T11:01:26.492Z,45.19
2023-04-14T11:03:35.350Z,45.53
2023-04-14T11:05:46.150Z,45.42
2023-04-14T11:08:03.222Z,47.11
2023-04-14T11:10:31.022Z,47.06
2023-04-14T11:12:46.209Z,47.83
2023-04-14T11:14:58.520Z,45.81
2023-04-14T11:17:05.025Z,45.36
2023-04-14T11:19:21.459Z,45.04
2023-04-14T11:21:30.185Z,45.26
2023-04-14T11:23:35.931Z,46.53
2023-04-14T11:25:42.915Z,47.35
2023-04-14T11:27:49.288Z,48.30
2023-04-14T11:29:57.376Z,45.17
2023-04-14T11:32:06.763Z,44.02
2023-04-14T11:34:11.896Z,44.13
2023-04-14T11:36:20.869Z,46.76
2023-04-14T11:38:29.420Z,46.23
2023-04-14T11:40:36.898Z,46.06
2023-04-14T11:42:42.056Z,46.62
2023-04-14T11:44:50.907Z,45.86
2023-04-14T11:46:56.900Z,46.11
2023-04-14T11:49:01.881Z,45.09
2023-04-14T11:51:07.419Z,46.23
2023-04-14T11:53:14.610Z,45.18
2023-04-14T11:55:23.546Z,45.71
2023-04-14T11:57:31.543Z,44.62
2023-04-14T11:59:44.764Z,43.00
2023-04-14T12:01:54.443Z,43.93
2023-04-14T12:04:00.165Z,43.54
2023-04-14T12:06:06.152Z,43.19
2023-04-14T12:08:13.390Z,44.34
2023-04-14T12:10:23.881Z,45.24
2023-04-14T12:12:29.564Z,45.91
2023-04-14T12:14:36.589Z,45.19
2023-04-14T12:16:41.780Z,42.95
2023-04-14T12:18:49.225Z,43.70
2023-04-14T12:20:57.660Z,45.04
2023-04-14T12:23:06.505Z,44.73
2023-04-14T12:25:14.738Z,44.18
2023-04-14T12:27:27.035Z,44.98
2023-04-14T12:29:32.009Z,44.98
2023-04-14T12:31:36.875Z,45.67
2023-04-14T12:33:41.843Z,41.83
2023-04-14T12:35:50.885Z,42.12
2023-04-14T12:37:58.634Z,43.12
2023-04-14T12:40:07.150Z,40.67
2023-04-14T12:42:12.055Z,40.57
2023-04-14T12:44:24.658Z,41.32
2023-04-14T12:46:31.429Z,40.53
2023-04-14T12:48:45.158Z,41.38
2023-04-14T12:50:53.516Z,40.60
2023-04-14T12:53:00.112Z,40.99
2023-04-14T12:55:05.011Z,39.59
2023-04-14T12:57:10.305Z,40.15
2023-04-14T12:59:15.410Z,39.90
2023-04-14T13:01:24.194Z,38.86
2023-04-14T13:03:45.235Z,40.31
2023-04-14T13:05:50.435Z,39.44
2023-04-14T13:07:56.542Z,39.62
2023-04-14T13:10:01.535Z,38.17
2023-04-14T13:12:07.149Z,38.25
2023-04-14T13:14:12.296Z,37.26
2023-04-14T13:16:21.535Z,38.08
2023-04-14T13:18:30.673Z,37.96
2023-04-14T13:20:36.023Z,37.91
2023-04-14T13:22:42.215Z,38.28
2023-04-14T13:24:50.276Z,38.99
2023-04-14T13:26:55.243Z,39.59
2023-04-14T13:29:02.991Z,39.01
2023-04-14T13:31:08.673Z,39.39
2023-04-14T13:33:14.621Z,40.03
2023-04-14T13:35:24.533Z,40.25
2023-04-14T13:37:29.416Z,40.33
2023-04-14T13:39:34.473Z,40.27
2023-04-14T13:41:39.550Z,40.81
2023-04-14T13:43:44.627Z,39.56
2023-04-14T13:45:49.736Z,40.39
2023-04-14T13:47:54.905Z,41.24
2023-04-14T13:49:59.854Z,41.83
2023-04-14T13:52:07.964Z,42.57
2023-04-14T13:54:13.088Z,42.02
2023-04-14T13:56:20.055Z,42.57
2023-04-14T13:58:27.107Z,42.31
2023-04-14T14:00:32.125Z,42.39
2023-04-14T14:02:39.722Z,41.30
2023-04-14T14:04:45.024Z,41.07
2023-04-14T14:06:50.244Z,40.36
2023-04-14T14:09:06.276Z,41.30
2023-04-14T14:11:13.070Z,41.06
2023-04-14T14:13:21.994Z,40.71
2023-04-14T14:15:27.182Z,41.44
2023-04-14T14:17:32.610Z,41.44
2023-04-14T14:19:37.812Z,41.50
2023-04-14T14:21:44.373Z,41.77
2023-04-14T14:23:49.429Z,42.31
2023-04-14T14:25:57.718Z,43.12
2023-04-14T14:28:02.743Z,42.67
2023-04-14T14:30:09.044Z,43.58
2023-04-14T14:32:15.793Z,43.21
2023-04-14T14:34:23.663Z,41.70
2023-04-14T14:36:32.688Z,41.93
2023-04-14T14:38:38.772Z,42.32
2023-04-14T14:40:44.285Z,41.61
2023-04-14T14:42:52.329Z,41.70
2023-04-14T14:44:57.441Z,42.39
2023-04-14T14:47:02.902Z,41.66
2023-04-14T14:49:08.336Z,41.70
2023-04-14T14:51:13.263Z,41.68
2023-04-14T14:53:19.888Z,41.31
2023-04-14T14:55:25.089Z,41.92
2023-04-14T14:57:39.637Z,40.90
2023-04-14T14:59:49.089Z,40.84
2023-04-14T15:01:53.962Z,41.48
2023-04-14T15:04:00.233Z,41.06
2023-04-14T15:06:05.746Z,41.32
2023-04-14T15:08:10.602Z,41.02
2023-04-14T15:10:15.491Z,41.42
2023-04-14T15:12:20.618Z,42.36
2023-04-14T15:14:26.213Z,40.85
2023-04-14T15:16:33.939Z,40.55
2023-04-14T15:18:39.039Z,40.78
2023-04-14T15:20:44.662Z,40.47
2023-04-14T15:22:49.583Z,39.98
2023-04-14T15:24:57.767Z,41.01
2023-04-14T15:27:02.874Z,40.81
2023-04-14T15:29:11.303Z,42.21
2023-04-14T15:31:18.223Z,42.00
2023-04-14T15:33:25.903Z,42.30
2023-04-14T15:35:30.870Z,42.18
2023-04-14T15:37:35.893Z,41.72
2023-04-14T15:39:40.909Z,42.07
2023-04-14T15:41:47.728Z,41.23
2023-04-14T15:43:53.206Z,41.97
2023-04-14T15:45:58.290Z,42.49
2023-04-14T15:48:03.436Z,42.53
2023-04-14T15:50:13.042Z,42.18
2023-04-14T15:52:24.494Z,41.54
2023-04-14T15:54:29.341Z,41.39
2023-04-14T15:56:44.614Z,41.11
2023-04-14T15:58:53.016Z,40.98
2023-04-14T16:00:58.828Z,41.46
2023-04-14T16:03:05.002Z,42.17
2023-04-14T16:05:16.394Z,42.47
2023-04-14T16:07:28.277Z,42.73
2023-04-14T16:09:33.505Z,42.84
2023-04-14T16:11:41.251Z,42.71
2023-04-14T16:13:49.284Z,43.18
2023-04-14T16:15:58.957Z,43.37
2023-04-14T16:18:07.716Z,43.25
2023-04-14T16:20:20.476Z,43.00
2023-04-14T16:22:27.158Z,43.39
2023-04-14T16:24:33.917Z,43.50
2023-04-14T16:26:40.199Z,43.06
2023-04-14T16:28:45.291Z,43.49
2023-04-14T16:30:54.083Z,43.97
2023-04-14T16:32:59.104Z,44.76
2023-04-14T16:35:09.961Z,44.65
2023-04-14T16:37:22.085Z,44.68
2023-04-14T16:39:32.418Z,45.13
2023-04-14T16:41:40.225Z,44.70
2023-04-14T16:43:45.112Z,45.42
2023-04-14T16:45:49.947Z,45.30
2023-04-14T16:47:55.134Z,45.40
2023-04-14T16:50:00.210Z,45.33
2023-04-14T16:52:05.349Z,45.20
2023-04-14T16:54:13.002Z,45.37
2023-04-14T16:56:22.923Z,45.01
2023-04-14T16:58:28.361Z,45.21
2023-04-14T17:00:33.617Z,45.09
2023-04-14T17:02:39.117Z,45.05
2023-04-14T17:04:49.056Z,45.37
2023-04-14T17:06:54.752Z,45.76
2023-04-14T17:09:00.826Z,45.40
2023-04-14T17:11:08.669Z,45.60
2023-04-14T17:13:13.743Z,45.88
2023-04-14T17:15:20.509Z,45.89
2023-04-14T17:17:30.212Z,45.88
2023-04-14T17:19:35.184Z,46.77
2023-04-14T17:21:40.453Z,47.02
2023-04-14T17:23:45.623Z,46.53
2023-04-14T17:25:55.508Z,46.90
2023-04-14T17:28:03.116Z,47.42
2023-04-14T17:30:12.197Z,47.83
2023-04-14T17:32:20.815Z,47.76
2023-04-14T17:34:29.507Z,47.55
2023-04-14T17:36:38.307Z,48.00
2023-04-14T17:38:51.053Z,48.30
2023-04-14T17:40:56.468Z,47.83
2023-04-14T17:43:04.896Z,48.36
2023-04-14T17:45:22.977Z,48.40
2023-04-14T17:47:28.114Z,48.60
2023-04-14T17:49:34.046Z,48.69
2023-04-14T17:51:39.251Z,49.14
2023-04-14T17:53:44.995Z,48.38
2023-04-14T17:55:53.588Z,48.19
2023-04-14T17:58:41.346Z,48.09
2023-04-14T18:00:46.411Z,48.81
2023-04-14T18:02:54.877Z,49.05
2023-04-14T18:05:03.026Z,48.79
2023-04-14T18:07:08.740Z,49.23
2023-04-14T18:09:15.020Z,50.01
2023-04-14T18:11:20.853Z,49.45
2023-04-14T18:13:31.821Z,49.52
2023-04-14T18:15:37.164Z,49.91
2023-04-14T18:17:45.407Z,49.84
2023-04-14T18:19:51.487Z,49.85
2023-04-14T18:21:58.863Z,49.23
2023-04-14T18:28:23.971Z,49.83
2023-04-14T18:30:35.128Z,50.63
2023-04-14T18:32:40.481Z,51.70
2023-04-14T18:34:51.313Z,50.41
2023-04-14T18:36:56.552Z,50.12
2023-04-14T18:39:02.760Z,50.17
2023-04-14T18:41:08.437Z,51.00
2023-04-14T18:43:13.279Z,51.38
2023-04-14T18:45:21.278Z,51.52
2023-04-14T18:47:29.182Z,52.10
2023-04-14T18:49:34.452Z,52.41
2023-04-14T18:51:39.571Z,52.94
2023-04-14T18:53:46.573Z,53.10
2023-04-14T18:55:53.574Z,53.59
2023-04-14T18:58:02.280Z,53.96
2023-04-14T19:00:09.233Z,54.46
2023-04-14T19:02:14.560Z,55.03
2023-04-14T19:04:23.463Z,55.75
2023-04-14T19:06:31.341Z,55.70
2023-04-14T19:08:38.126Z,56.77
2023-04-14T19:10:43.629Z,56.57
2023-04-14T19:12:49.361Z,56.34
2023-04-14T19:14:54.428Z,56.90
2023-04-14T19:16:59.484Z,56.71
2023-04-14T19:19:04.581Z,57.15
2023-04-14T19:21:12.628Z,57.64
2023-04-14T19:23:20.056Z,57.66
2023-04-14T19:25:28.149Z,57.85
2023-04-14T19:27:36.481Z,58.01
2023-04-14T19:29:41.598Z,58.27
2023-04-14T19:31:49.268Z,59.19
2023-04-14T19:33:54.249Z,59.16
2023-04-14T19:35:59.124Z,59.27
2023-04-14T19:38:09.463Z,59.50
2023-04-14T19:40:15.323Z,59.49
2023-04-14T19:42:23.140Z,59.55
2023-04-14T19:44:28.110Z,60.21
2023-04-14T19:46:35.803Z,59.96
2023-04-14T19:48:41.169Z,60.41
2023-04-14T19:50:50.759Z,60.29
2023-04-14T19:52:56.003Z,60.67
2023-04-14T19:55:03.497Z,60.78
2023-04-14T19:57:08.630Z,61.66
2023-04-14T19:59:13.904Z,61.00
2023-04-14T20:01:20.939Z,61.28
2023-04-14T20:03:26.435Z,61.19
2023-04-14T20:05:31.539Z,61.91
2023-04-14T20:07:36.619Z,62.73
2023-04-14T20:09:45.169Z,62.11
2023-04-14T20:11:53.783Z,61.84
2023-04-14T20:13:58.837Z,62.28
2023-04-14T20:16:04.584Z,63.32
2023-04-14T20:18:10.627Z,63.54
2023-04-14T20:20:24.621Z,64.57
2023-04-14T20:22:29.459Z,64.31
2023-04-14T20:24:34.318Z,63.49
2023-04-14T20:26:42.856Z,63.67
2023-04-14T20:28:51.395Z,63.38
2023-04-14T20:30:57.545Z,64.25
2023-04-14T20:33:04.278Z,65.21
2023-04-14T20:35:09.846Z,64.99
2023-04-14T20:37:14.959Z,65.41
2023-04-14T20:39:20.247Z,65.13
2023-04-14T20:41:25.358Z,65.26
2023-04-14T20:43:34.459Z,65.47
2023-04-14T20:45:42.156Z,66.27
2023-04-14T20:47:47.402Z,66.45
2023-04-14T20:49:53.202Z,66.39
2023-04-14T20:52:01.999Z,65.68
2023-04-14T20:54:07.235Z,66.71
2023-04-14T20:56:12.202Z,66.52
2023-04-14T20:58:19.435Z,67.30
2023-04-14T21:00:24.762Z,66.58
2023-04-14T21:02:32.714Z,67.24
2023-04-14T21:04:38.223Z,66.75
2023-04-14T21:06:43.198Z,67.90
2023-04-14T21:08:51.783Z,67.88
2023-04-14T21:11:16.256Z,68.29
2023-04-14T21:15:39.803Z,68.61
2023-04-14T21:15:56.898Z,67.75
2023-04-14T21:18:04.706Z,67.86
2023-04-14T21:20:11.100Z,68.27
2023-04-14T21:22:16.111Z,67.44
2023-04-14T21:24:23.210Z,67.03
2023-04-14T21:26:28.881Z,66.65
2023-04-14T21:28:35.718Z,66.14
2023-04-14T21:30:40.904Z,66.21
2023-04-14T21:32:45.917Z,65.81
2023-04-14T21:34:53.458Z,65.15
2023-04-14T21:36:59.641Z,65.27
2023-04-14T21:39:04.953Z,65.57
2023-04-14T21:41:11.056Z,65.43
2023-04-14T21:43:15.942Z,65.76
2023-04-14T21:45:23.605Z,65.51
2023-04-14T21:47:29.112Z,65.54
2023-04-14T21:49:34.087Z,66.40
2023-04-14T21:51:41.961Z,66.16
2023-04-14T21:53:48.896Z,67.10
2023-04-14T21:56:09.185Z,67.41
2023-04-14T21:58:15.688Z,67.44
2023-04-14T22:00:20.703Z,67.20
2023-04-14T22:02:27.562Z,66.92
2023-04-14T22:04:36.555Z,66.74
2023-04-14T22:06:46.050Z,66.76
2023-04-14T22:08:53.665Z,66.30
2023-04-14T22:10:58.722Z,66.53
2023-04-14T22:13:06.583Z,67.10
2023-04-14T22:15:12.545Z,66.77
2023-04-14T22:17:20.027Z,66.99
2023-04-14T22:19:25.289Z,67.00
2023-04-14T22:21:30.477Z,67.09
2023-04-14T22:23:38.813Z,67.19
2023-04-14T22:25:44.215Z,66.52
2023-04-14T22:27:49.494Z,66.34
2023-04-14T22:29:54.525Z,66.56
2023-04-14T22:31:59.614Z,66.21
2023-04-14T22:34:04.547Z,65.99
2023-04-14T22:36:10.201Z,65.56
2023-04-14T22:38:15.778Z,65.51
2023-04-14T22:40:23.544Z,64.89
2023-04-14T22:42:30.553Z,64.96
2023-04-14T22:44:35.780Z,65.13
2023-04-14T22:46:41.023Z,64.67
2023-04-14T22:48:46.959Z,63.98
2023-04-14T22:50:52.596Z,63.82
2023-04-14T22:52:58.351Z,64.20
2023-04-14T22:55:03.283Z,64.75
2023-04-14T22:57:11.492Z,64.01
2023-04-14T22:59:21.362Z,64.33
2023-04-14T23:01:27.012Z,64.47
2023-04-14T23:03:34.679Z,64.29
2023-04-14T23:05:40.284Z,64.32
2023-04-14T23:07:45.615Z,64.21
2023-04-14T23:09:53.575Z,64.17
2023-04-14T23:11:58.536Z,63.86
2023-04-14T23:14:06.204Z,63.97
2023-04-14T23:16:11.473Z,64.11
2023-04-14T23:18:16.756Z,64.01
2023-04-14T23:20:25.058Z,64.35
2023-04-14T23:22:30.763Z,64.18
2023-04-14T23:24:37.614Z,64.82
2023-04-14T23:26:42.686Z,64.49
2023-04-14T23:28:48.039Z,64.40
2023-04-14T23:30:56.143Z,64.84
2023-04-14T23:33:02.079Z,64.89
2023-04-14T23:35:07.613Z,64.91
2023-04-14T23:37:12.750Z,64.88
2023-04-14T23:39:17.961Z,64.85
2023-04-14T23:41:24.825Z,65.13
2023-04-14T23:43:30.420Z,64.39
2023-04-14T23:45:40.108Z,64.36
2023-04-14T23:47:47.753Z,63.83
2023-04-14T23:49:53.330Z,64.00
2023-04-14T23:51:58.379Z,63.82
2023-04-14T23:54:04.048Z,63.24
2023-04-14T23:56:10.332Z,63.14
2023-04-14T23:58:26.004Z,62.91
